createdAt,value
2024-02-08T00:01:55.880Z,96934.66
2024-02-08T00:05:01.529Z,96845.94
2024-02-08T00:08:07.304Z,96924.78
2024-02-08T00:11:12.995Z,96939.78
2024-02-08T00:14:19.520Z,96932.50
2024-02-08T00:17:24.807Z,96929.97
2024-02-08T00:20:30.727Z,96936.22
2024-02-08T00:23:36.106Z,96928.91
2024-02-08T00:26:41.776Z,96934.41
2024-02-08T00:29:47.768Z,96795.97
2024-02-08T00:32:54.401Z,96915.16
2024-02-08T00:35:59.867Z,96939.53
2024-02-08T00:39:07.028Z,96918.44
2024-02-08T00:42:12.835Z,96934.22
2024-02-08T00:45:18.449Z,96921.16
2024-02-08T00:48:24.143Z,96939.53
2024-02-08T00:51:32.904Z,96935.16
2024-02-08T00:54:38.218Z,96954.56
2024-02-08T00:57:44.029Z,96961.50
2024-02-08T01:00:50.121Z,96962.28
2024-02-08T01:03:37.352Z,96952.25
2024-02-08T01:06:42.906Z,96959.38
2024-02-08T01:09:49.295Z,96962.28
2024-02-08T01:12:55.239Z,96952.63
2024-02-08T01:16:00.956Z,96962.13
2024-02-08T01:19:06.331Z,96948.59
2024-02-08T01:22:13.646Z,96932.06
2024-02-08T01:25:19.369Z,96962.13
2024-02-08T01:28:08.563Z,96955.38
2024-02-08T01:31:14.205Z,96953.91
2024-02-08T01:34:19.970Z,96968.88
2024-02-08T01:37:25.580Z,96969.22
2024-02-08T01:40:31.723Z,96972.84
2024-02-08T01:43:37.316Z,96983.78
2024-02-08T01:46:43.511Z,96983.72
2024-02-08T01:49:51.857Z,96912.06
2024-02-08T01:52:57.808Z,96977.81
2024-02-08T01:56:04.956Z,96980.00
2024-02-08T01:59:11.386Z,96976.00
2024-02-08T02:02:21.445Z,96978.34
2024-02-08T02:05:27.507Z,96971.97
2024-02-08T02:08:39.748Z,96976.69
2024-02-08T02:11:58.593Z,96989.25
2024-02-08T02:15:04.823Z,97015.78
2024-02-08T02:18:12.682Z,96991.38
2024-02-08T02:21:19.086Z,96991.78
2024-02-08T02:24:25.197Z,96992.53
2024-02-08T02:27:32.456Z,96997.28
2024-02-08T02:30:38.601Z,96993.28
2024-02-08T02:33:44.684Z,96991.06
2024-02-08T02:36:50.943Z,97002.16
2024-02-08T02:39:57.040Z,97005.63
2024-02-08T02:43:02.748Z,97003.84
2024-02-08T02:46:08.781Z,97004.03
2024-02-08T02:49:14.551Z,97006.06
2024-02-08T02:52:20.163Z,97019.94
2024-02-08T02:55:26.192Z,97000.38
2024-02-08T02:58:31.834Z,97010.44
2024-02-08T03:01:37.608Z,97012.59
2024-02-08T03:04:44.656Z,97004.22
2024-02-08T03:07:50.326Z,97002.59
2024-02-08T03:10:59.437Z,97004.59
2024-02-08T03:14:05.623Z,97010.44
2024-02-08T03:17:11.813Z,97004.13
2024-02-08T03:20:19.297Z,97013.41
2024-02-08T03:23:25.050Z,97017.09
2024-02-08T03:26:30.689Z,97019.63
2024-02-08T03:29:36.371Z,97018.19
2024-02-08T03:32:42.145Z,97023.66
2024-02-08T03:35:50.787Z,97030.63
2024-02-08T03:38:56.330Z,97031.91
2024-02-08T03:42:02.168Z,97029.16
2024-02-08T03:45:08.480Z,97029.53
2024-02-08T03:48:15.130Z,97033.16
2024-02-08T03:51:20.965Z,97029.84
2024-02-08T03:54:26.292Z,97033.09
2024-02-08T03:57:31.980Z,97037.09
2024-02-08T04:00:38.118Z,97037.09
2024-02-08T04:03:42.432Z,97033.06
2024-02-08T04:06:48.878Z,97042.56
2024-02-08T04:09:58.016Z,97043.84
2024-02-08T04:13:02.752Z,97042.19
2024-02-08T04:16:07.298Z,97040.22
2024-02-08T04:19:11.343Z,97043.72
2024-02-08T04:22:15.250Z,97039.91
2024-02-08T04:25:19.585Z,97041.91
2024-02-08T04:28:26.667Z,97046.25
2024-02-08T04:31:33.002Z,97032.22
2024-02-08T04:34:37.019Z,97027.66
2024-02-08T04:37:41.844Z,97043.50
2024-02-08T04:40:45.726Z,97049.13
2024-02-08T04:43:50.112Z,97061.16
2024-02-08T04:46:54.208Z,97067.72
2024-02-08T04:49:59.833Z,97053.50
2024-02-08T04:53:04.068Z,97061.13
2024-02-08T04:55:49.844Z,97063.31
2024-02-08T04:59:05.524Z,96874.75
2024-02-08T05:01:47.067Z,97072.59
2024-02-08T05:04:41.771Z,97073.88
2024-02-08T05:07:29.370Z,97086.84
2024-02-08T05:10:16.690Z,97081.56
2024-02-08T05:13:06.017Z,97086.72
2024-02-08T05:15:53.198Z,97093.47
2024-02-08T05:18:38.757Z,97097.47
2024-02-08T05:21:24.641Z,97096.59
2024-02-08T05:24:14.874Z,97106.06
2024-02-08T05:27:00.870Z,97116.28
2024-02-08T05:29:47.863Z,97116.28
2024-02-08T05:32:37.779Z,97119.22
2024-02-08T05:35:24.147Z,97122.13
2024-02-08T05:38:10.046Z,97129.78
2024-02-08T05:40:59.712Z,97123.94
2024-02-08T05:43:47.450Z,97128.13
2024-02-08T05:46:39.223Z,97142.00
2024-02-08T05:49:27.572Z,97136.34
2024-02-08T05:52:15.332Z,97140.38
2024-02-08T05:55:04.747Z,97134.19
2024-02-08T05:57:50.447Z,97139.66
2024-02-08T06:00:47.376Z,97145.28
2024-02-08T06:03:39.018Z,97154.22
2024-02-08T06:06:34.728Z,97150.03
2024-02-08T06:09:39.507Z,97165.53
2024-02-08T06:13:05.894Z,97160.44
2024-02-08T06:16:11.531Z,97160.59
2024-02-08T06:19:17.797Z,97165.53
2024-02-08T06:22:42.253Z,97174.66
2024-02-08T06:25:47.710Z,97172.09
2024-02-08T06:28:53.502Z,97176.31
2024-02-08T06:31:59.194Z,97183.75
2024-02-08T06:35:05.346Z,97182.09
2024-02-08T06:38:20.297Z,97194.16
2024-02-08T06:41:05.743Z,97193.59
2024-02-08T06:44:01.045Z,97191.75
2024-02-08T06:46:50.215Z,97194.31
2024-02-08T06:49:54.504Z,97197.59
2024-02-08T06:52:58.607Z,97203.81
2024-02-08T06:56:03.904Z,97205.28
2024-02-08T06:59:08.393Z,97202.00
2024-02-08T07:02:14.274Z,97206.94
2024-02-08T07:05:18.471Z,97173.22
2024-02-08T07:08:27.622Z,97205.28
2024-02-08T07:11:35.628Z,97183.78
2024-02-08T07:14:39.802Z,97215.53
2024-02-08T07:17:44.196Z,97210.41
2024-02-08T07:20:48.380Z,97215.00
2024-02-08T07:23:52.936Z,97159.75
2024-02-08T07:26:57.182Z,97254.97
2024-02-08T07:30:01.653Z,97224.84
2024-02-08T07:33:06.872Z,97228.69
2024-02-08T07:36:10.630Z,97238.56
2024-02-08T07:39:15.025Z,97236.72
2024-02-08T07:42:20.881Z,97241.13
2024-02-08T07:45:26.716Z,97242.41
2024-02-08T07:48:33.621Z,97129.50
2024-02-08T07:51:39.265Z,97241.88
2024-02-08T07:54:45.449Z,97233.66
2024-02-08T07:57:32.894Z,97227.63
2024-02-08T08:00:37.592Z,97240.25
2024-02-08T08:03:46.013Z,97242.97
2024-02-08T08:07:10.158Z,97239.31
2024-02-08T08:10:21.990Z,97235.66
2024-02-08T08:13:27.309Z,97233.50
2024-02-08T08:16:31.967Z,97237.50
2024-02-08T08:19:38.022Z,97229.44
2024-02-08T08:22:26.689Z,97231.66
2024-02-08T08:25:32.493Z,97239.31
2024-02-08T08:28:30.489Z,97234.56
2024-02-08T08:31:45.354Z,97235.31
2024-02-08T08:34:37.324Z,97238.22
2024-02-08T08:37:43.006Z,97240.03
2024-02-08T08:40:41.422Z,97240.44
2024-02-08T08:43:32.762Z,97243.72
2024-02-08T08:46:21.151Z,97177.66
2024-02-08T08:49:07.641Z,97245.53
2024-02-08T08:52:00.286Z,97242.25
2024-02-08T08:54:58.121Z,97244.59
2024-02-08T08:57:45.425Z,97257.94
2024-02-08T09:00:38.536Z,97250.06
2024-02-08T09:03:27.661Z,97255.56
2024-02-08T09:06:13.921Z,97253.00
2024-02-08T09:09:00.424Z,97260.13
2024-02-08T09:11:46.270Z,97257.22
2024-02-08T09:14:33.567Z,97260.50
2024-02-08T09:17:40.131Z,97097.75
2024-02-08T09:20:37.301Z,97213.78
2024-02-08T09:23:27.112Z,97257.03
2024-02-08T09:26:13.170Z,97264.69
2024-02-08T09:29:01.364Z,97258.28
2024-02-08T09:31:47.891Z,97248.06
2024-02-08T09:34:42.295Z,97258.66
2024-02-08T09:37:30.717Z,97253.56
2024-02-08T09:40:23.707Z,97252.81
2024-02-08T09:43:19.431Z,97254.25
2024-02-08T09:46:19.022Z,97255.72
2024-02-08T09:49:20.312Z,97242.94
2024-02-08T09:52:17.913Z,97238.00
2024-02-08T09:55:19.990Z,97247.31
2024-02-08T09:58:11.744Z,97240.75
2024-02-08T10:00:59.480Z,97242.94
2024-02-08T10:03:47.606Z,97221.56
2024-02-08T10:06:43.200Z,97213.34
2024-02-08T10:09:47.345Z,97233.59
2024-02-08T10:12:54.398Z,97226.84
2024-02-08T10:16:01.100Z,97226.50
2024-02-08T10:19:15.834Z,97225.19
2024-02-08T10:22:22.067Z,97219.38
2024-02-08T10:25:28.238Z,97226.50
2024-02-08T10:30:26.606Z,97221.72
2024-02-08T10:33:38.513Z,97222.13
2024-02-08T10:36:45.295Z,97221.72
2024-02-08T10:39:51.434Z,97183.81
2024-02-08T10:42:57.051Z,97216.22
2024-02-08T10:46:02.993Z,97214.41
2024-02-08T10:49:08.875Z,97203.81
2024-02-08T10:52:15.737Z,97213.28
2024-02-08T10:55:21.397Z,97210.75
2024-02-08T10:58:10.997Z,97209.28
2024-02-08T11:01:35.319Z,97143.69
2024-02-08T11:04:50.298Z,97187.22
2024-02-08T11:07:57.091Z,97184.09
2024-02-08T11:11:06.511Z,97179.72
2024-02-08T11:14:13.930Z,97194.31
2024-02-08T11:17:20.757Z,97198.69
2024-02-08T11:20:18.358Z,97183.88
2024-02-08T11:23:24.399Z,97174.56
2024-02-08T11:26:10.568Z,97164.69
2024-02-08T11:29:26.929Z,97167.09
2024-02-08T11:32:39.119Z,97078.91
2024-02-08T11:35:50.337Z,97168.56
2024-02-08T11:38:56.685Z,97155.97
2024-02-08T11:42:02.276Z,97164.38
2024-02-08T11:45:07.816Z,97160.50
2024-02-08T11:48:13.369Z,97154.88
2024-02-08T11:51:30.922Z,97153.41
2024-02-08T11:54:49.089Z,97153.41
2024-02-08T11:57:59.212Z,97168.72
2024-02-08T12:00:50.453Z,97167.97
2024-02-08T12:03:42.979Z,97178.56
2024-02-08T12:06:31.164Z,97151.19
2024-02-08T12:09:24.079Z,97148.25
2024-02-08T12:12:30.026Z,97173.78
2024-02-08T12:15:36.861Z,97171.56
2024-02-08T12:18:44.406Z,97116.50
2024-02-08T12:21:50.858Z,97140.31
2024-02-08T12:24:58.226Z,97148.81
2024-02-08T12:27:50.682Z,97151.19
2024-02-08T12:30:40.980Z,97135.69
2024-02-08T12:33:30.255Z,97135.38
2024-02-08T12:36:21.024Z,97141.94
2024-02-08T12:39:19.116Z,97133.56
2024-02-08T12:42:06.366Z,97127.72
2024-02-08T12:45:12.630Z,97126.66
2024-02-08T12:47:59.132Z,97140.75
2024-02-08T12:50:45.057Z,97131.28
2024-02-08T12:53:34.488Z,97042.25
2024-02-08T12:56:22.024Z,97123.50
2024-02-08T12:59:27.603Z,97100.41
2024-02-08T13:02:37.166Z,97107.34
2024-02-08T13:05:30.341Z,97119.97
2024-02-08T13:08:22.878Z,97114.13
2024-02-08T13:11:08.775Z,97118.50
2024-02-08T13:14:05.898Z,97113.06
2024-02-08T13:16:54.673Z,97094.47
2024-02-08T13:19:41.386Z,97113.41
2024-02-08T13:22:32.539Z,97115.25
2024-02-08T13:25:39.540Z,97102.13
2024-02-08T13:28:46.381Z,97109.06
2024-02-08T13:31:52.033Z,97098.13
2024-02-08T13:34:41.900Z,97105.06
2024-02-08T13:37:28.427Z,97096.31
2024-02-08T13:40:15.005Z,97083.16
2024-02-08T13:43:01.417Z,97088.25
2024-02-08T13:45:51.645Z,97089.38
2024-02-08T13:48:38.022Z,97102.84
2024-02-08T13:51:24.217Z,97100.69
2024-02-08T13:54:13.978Z,97115.09
2024-02-08T13:56:59.563Z,97103.97
2024-02-08T13:59:49.935Z,97122.94
2024-02-08T14:02:37.800Z,97125.66
2024-02-08T14:05:27.016Z,97110.53
2024-02-08T14:08:19.143Z,97104.31
2024-02-08T14:11:10.658Z,97095.22
2024-02-08T14:13:58.181Z,97088.28
2024-02-08T14:16:48.979Z,97100.69
2024-02-08T14:19:38.325Z,97089.41
2024-02-08T14:22:26.037Z,97085.94
2024-02-08T14:25:24.820Z,97057.31
2024-02-08T14:28:13.794Z,97062.78
2024-02-08T14:31:03.031Z,97067.84
2024-02-08T14:33:50.094Z,97064.22
2024-02-08T14:36:35.494Z,97081.16
2024-02-08T14:39:34.241Z,97082.81
2024-02-08T14:42:26.437Z,97067.50
2024-02-08T14:45:13.527Z,97081.00
2024-02-08T14:48:01.765Z,97081.53
2024-02-08T14:50:50.181Z,97093.94
2024-02-08T14:53:41.799Z,97087.94
2024-02-08T14:56:27.547Z,97079.19
2024-02-08T14:59:15.141Z,97085.34
2024-02-08T15:02:21.096Z,97083.19
2024-02-08T15:05:27.123Z,97083.94
2024-02-08T15:08:36.052Z,97085.34
2024-02-08T15:11:48.069Z,97089.03
2024-02-08T15:14:59.404Z,97083.19
2024-02-08T15:18:04.918Z,97073.91
2024-02-08T15:21:10.468Z,97074.81
2024-02-08T15:24:09.372Z,97087.38
2024-02-08T15:27:26.715Z,97080.63
2024-02-08T15:30:32.778Z,97076.25
2024-02-08T15:33:38.539Z,97059.47
2024-02-08T15:36:51.573Z,97081.38
2024-02-08T15:39:37.428Z,97078.81
2024-02-08T15:42:52.774Z,97086.47
2024-02-08T15:45:58.693Z,97087.53
2024-02-08T15:49:04.790Z,97070.97
2024-02-08T15:52:10.423Z,97071.13
2024-02-08T15:55:00.368Z,97060.75
2024-02-08T15:58:09.034Z,97081.72
2024-02-08T16:01:23.676Z,97068.63
2024-02-08T16:04:28.650Z,97085.34
2024-02-08T16:07:20.339Z,97061.66
2024-02-08T16:10:21.125Z,97081.72
2024-02-08T16:13:27.390Z,97078.75
2024-02-08T16:16:33.069Z,97078.38
2024-02-08T16:19:42.026Z,97084.56
2024-02-08T16:22:31.392Z,97096.38
2024-02-08T16:25:38.377Z,97086.03
2024-02-08T16:28:30.355Z,97083.81
2024-02-08T16:31:19.393Z,97081.09
2024-02-08T16:34:25.875Z,97082.34
2024-02-08T16:37:31.640Z,97101.28
2024-02-08T16:40:29.335Z,97072.53
2024-02-08T16:43:35.241Z,97058.31
2024-02-08T16:46:41.043Z,97063.97
2024-02-08T16:49:47.113Z,97055.03
2024-02-08T16:52:52.963Z,97053.59
2024-02-08T16:55:58.812Z,97044.13
2024-02-08T16:59:07.352Z,97041.59
2024-02-08T17:02:25.528Z,97049.78
2024-02-08T17:05:31.080Z,97041.59
2024-02-08T17:08:39.670Z,97036.81
2024-02-08T17:11:45.097Z,97032.06
2024-02-08T17:15:00.314Z,97038.63
2024-02-08T17:18:05.721Z,97045.53
2024-02-08T17:21:15.358Z,97027.28
2024-02-08T17:24:20.787Z,96879.75
2024-02-08T17:27:26.202Z,97037.84
2024-02-08T17:30:31.858Z,97021.81
2024-02-08T17:33:37.791Z,97016.72
2024-02-08T17:36:43.702Z,97022.00
2024-02-08T17:39:58.706Z,97009.44
2024-02-08T17:43:05.957Z,97003.97
2024-02-08T17:46:13.004Z,96994.13
2024-02-08T17:49:18.936Z,96992.50
2024-02-08T17:52:25.816Z,96991.03
2024-02-08T17:55:32.164Z,96975.94
2024-02-08T17:58:41.825Z,96979.59
2024-02-08T18:01:52.990Z,96968.13
2024-02-08T18:04:59.651Z,96868.09
2024-02-08T18:08:05.141Z,96952.09
2024-02-08T18:11:14.110Z,96902.34
2024-02-08T18:14:19.590Z,96943.00
2024-02-08T18:17:25.923Z,96945.75
2024-02-08T18:20:38.209Z,96813.47
2024-02-08T18:23:44.002Z,96941.19
2024-02-08T18:26:49.783Z,96939.19
2024-02-08T18:29:55.425Z,96923.16
2024-02-08T18:33:00.995Z,96903.50
2024-02-08T18:36:06.900Z,96927.91
2024-02-08T18:38:54.256Z,96927.16
2024-02-08T18:42:00.416Z,96926.63
2024-02-08T18:44:46.543Z,96922.59
2024-02-08T18:47:35.406Z,96927.19
2024-02-08T18:50:31.948Z,96813.56
2024-02-08T18:53:41.775Z,96915.38
2024-02-08T18:56:47.877Z,96908.06
2024-02-08T18:59:34.566Z,96917.72
2024-02-08T19:02:41.194Z,96925.38
2024-02-08T19:05:51.114Z,96922.84
2024-02-08T19:08:38.220Z,96901.88
2024-02-08T19:11:26.010Z,96902.78
2024-02-08T19:14:13.910Z,96917.00
2024-02-08T19:17:03.141Z,96921.38
2024-02-08T19:19:50.703Z,96906.63
2024-02-08T19:22:41.929Z,96921.75
2024-02-08T19:25:30.666Z,96895.91
2024-02-08T19:28:23.363Z,96895.91
2024-02-08T19:31:31.686Z,96760.81
2024-02-08T19:34:40.603Z,96913.03
2024-02-08T19:37:47.940Z,96886.44
2024-02-08T19:40:53.980Z,96872.22
2024-02-08T19:44:00.170Z,96863.88
2024-02-08T19:47:09.549Z,96845.66
2024-02-08T19:50:23.215Z,96854.94
2024-02-08T19:53:09.704Z,96846.41
2024-02-08T19:55:56.696Z,96842.75
2024-02-08T19:58:44.444Z,96830.38
2024-02-08T20:01:37.391Z,96826.00
2024-02-08T20:04:29.286Z,96816.72
2024-02-08T20:07:15.110Z,96827.47
2024-02-08T20:10:21.336Z,96814.38
2024-02-08T20:13:14.971Z,96810.38
2024-02-08T20:16:01.367Z,96810.38
2024-02-08T20:19:07.293Z,96814.38
2024-02-08T20:22:13.682Z,96808.91
2024-02-08T20:25:19.629Z,96801.63
2024-02-08T20:28:07.748Z,96796.88
2024-02-08T20:30:56.231Z,96802.53
2024-02-08T20:34:02.069Z,96735.22
2024-02-08T20:37:07.648Z,96779.78
2024-02-08T20:40:13.695Z,96772.69
2024-02-08T20:43:19.692Z,96769.78
2024-02-08T20:46:06.669Z,96783.38
2024-02-08T20:48:57.291Z,96764.50
2024-02-08T20:52:04.103Z,96783.03
2024-02-08T20:55:10.531Z,96784.84
2024-02-08T20:58:16.654Z,96787.19
2024-02-08T21:01:22.536Z,96773.53
2024-02-08T21:04:28.706Z,96775.00
2024-02-08T21:07:34.869Z,96771.72
2024-02-08T21:10:43.847Z,96736.44
2024-02-08T21:13:50.395Z,96775.00
2024-02-08T21:16:41.318Z,96768.25
2024-02-08T21:19:26.955Z,96750.25
2024-02-08T21:22:32.808Z,96732.63
2024-02-08T21:25:38.535Z,96742.06
2024-02-08T21:28:44.555Z,96739.34
2024-02-08T21:31:30.395Z,96732.56
2024-02-08T21:34:16.328Z,96729.13
2024-02-08T21:37:27.997Z,96723.66
2024-02-08T21:40:34.407Z,96716.75
2024-02-08T21:43:21.389Z,96724.38
2024-02-08T21:46:27.091Z,96709.47
2024-02-08T21:49:32.658Z,96672.97
2024-02-08T21:52:34.157Z,96709.47
2024-02-08T21:55:39.611Z,96707.28
2024-02-08T21:58:45.657Z,96702.53
2024-02-08T22:01:51.398Z,96692.72
2024-02-08T22:04:58.267Z,96686.19
2024-02-08T22:08:04.242Z,96683.06
2024-02-08T22:11:13.356Z,96679.59
2024-02-08T22:14:19.371Z,96685.06
2024-02-08T22:17:25.064Z,96648.00
2024-02-08T22:20:32.055Z,96659.22
2024-02-08T22:23:38.005Z,96640.34
2024-02-08T22:26:43.746Z,96668.84
2024-02-08T22:29:49.479Z,96660.66
2024-02-08T22:32:55.128Z,96645.72
2024-02-08T22:36:01.036Z,96543.06
2024-02-08T22:39:06.569Z,96648.44
2024-02-08T22:42:12.816Z,96597.03
2024-02-08T22:45:18.947Z,96637.69
2024-02-08T22:48:25.288Z,96622.06
2024-02-08T22:51:32.071Z,96623.84
2024-02-08T22:54:37.804Z,96626.59
2024-02-08T22:57:43.375Z,96618.25
2024-02-08T23:00:29.296Z,96623.13
2024-02-08T23:03:15.249Z,96535.66
2024-02-08T23:06:21.158Z,96607.53
2024-02-08T23:09:26.678Z,96617.31
2024-02-08T23:12:32.412Z,96604.59
2024-02-08T23:15:26.863Z,96587.03
2024-02-08T23:18:16.735Z,96578.13
2024-02-08T23:21:07.107Z,96584.13
2024-02-08T23:23:53.354Z,96595.06
2024-02-08T23:26:38.832Z,96567.41
2024-02-08T23:29:25.996Z,96573.75
2024-02-08T23:32:12.372Z,96558.81
2024-02-08T23:34:58.960Z,96556.81
2024-02-08T23:37:47.918Z,96557.00
2024-02-08T23:54:43.409Z,96530.50
2024-02-08T23:57:30.444Z,96493.88
